RYR8414 EPMO-LATI
Flight info
| Callsign | RYR8414 |
|---|---|
| Flight time | 1h 51m |
| Altitude | 37000 |
| Route | XIMBA N195 OMAVA DCT KEKED/N0434F360 DCT SAG DCT BINKU DCT PARAK/N0434F370 DCT VAL/N0433F360 DCT AKIKA/N0335F180 T8 INLOT |
| Aircraft | B738/M-SDE2E3FGHIRWXY/LB1 |
Departure
| Time | 2026-04-25 12:07 |
|---|---|
| Airport | Warsaw Modlin Airport (EPMO) |
Arrival
| Time | 2026-04-25 13:59 |
|---|---|
| Airport | Tirana International Airport Mother Teresa (LATI) |
| Time | Latitude | Longitude | Altitude | Speed | Heading |
|---|---|---|---|---|---|
| 2026-04-25 11:38 | 52.44752 | 20.65337 | 338 ft | 0 kts | 207° |
| 2026-04-25 11:53 | 52.44753 | 20.65338 | 338 ft | 0 kts | 207° |
| 2026-04-25 11:59 | 52.44754 | 20.65339 | 338 ft | 1 kts | 207° |
| 2026-04-25 11:59 | 52.44767 | 20.65350 | 337 ft | 1 kts | 206° |
| 2026-04-25 12:00 | 52.44791 | 20.65352 | 337 ft | 2 kts | 143° |
| 2026-04-25 12:00 | 52.44799 | 20.65332 | 337 ft | 2 kts | 99° |
| 2026-04-25 12:00 | 52.44798 | 20.65312 | 337 ft | 0 kts | 83° |
| 2026-04-25 12:02 | 52.44799 | 20.65323 | 337 ft | 3 kts | 85° |
| 2026-04-25 12:03 | 52.44803 | 20.65385 | 337 ft | 7 kts | 84° |
| 2026-04-25 12:03 | 52.44812 | 20.65487 | 336 ft | 10 kts | 81° |
| 2026-04-25 12:03 | 52.44823 | 20.65602 | 338 ft | 9 kts | 81° |
| 2026-04-25 12:03 | 52.44834 | 20.65728 | 339 ft | 13 kts | 82° |
| 2026-04-25 12:04 | 52.44851 | 20.65909 | 339 ft | 18 kts | 82° |
| 2026-04-25 12:04 | 52.44873 | 20.66137 | 338 ft | 20 kts | 81° |
| 2026-04-25 12:04 | 52.44894 | 20.66358 | 338 ft | 19 kts | 81° |
| 2026-04-25 12:04 | 52.44914 | 20.66568 | 338 ft | 18 kts | 82° |
| 2026-04-25 12:05 | 52.44933 | 20.66770 | 337 ft | 17 kts | 81° |
| 2026-04-25 12:05 | 52.44950 | 20.66959 | 337 ft | 14 kts | 82° |
| 2026-04-25 12:05 | 52.44998 | 20.67070 | 336 ft | 12 kts | 6° |
| 2026-04-25 12:05 | 52.45086 | 20.67054 | 334 ft | 12 kts | 352° |
| 2026-04-25 12:06 | 52.45169 | 20.67031 | 333 ft | 12 kts | 352° |
| 2026-04-25 12:06 | 52.45249 | 20.66996 | 331 ft | 11 kts | 337° |
| 2026-04-25 12:06 | 52.45282 | 20.66898 | 330 ft | 10 kts | 262° |
| 2026-04-25 12:06 | 52.45262 | 20.66691 | 331 ft | 44 kts | 261° |
| 2026-04-25 12:07 | 52.45181 | 20.65828 | 333 ft | 109 kts | 262° |
| 2026-04-25 12:07 | 52.45037 | 20.64296 | 411 ft | 155 kts | 258° |
| 2026-04-25 12:07 | 52.44870 | 20.62634 | 1300 ft | 144 kts | 261° |
| 2026-04-25 12:07 | 52.44704 | 20.61112 | 2037 ft | 140 kts | 262° |
| 2026-04-25 12:08 | 52.44555 | 20.59415 | 2321 ft | 158 kts | 263° |
| 2026-04-25 12:08 | 52.44395 | 20.57546 | 2585 ft | 179 kts | 262° |
| 2026-04-25 12:08 | 52.44340 | 20.55471 | 3099 ft | 186 kts | 280° |
| 2026-04-25 12:08 | 52.44928 | 20.53597 | 3652 ft | 197 kts | 313° |
| 2026-04-25 12:09 | 52.46186 | 20.52464 | 4099 ft | 219 kts | 340° |
| 2026-04-25 12:09 | 52.47774 | 20.52201 | 4506 ft | 240 kts | 352° |
| 2026-04-25 12:09 | 52.49473 | 20.52111 | 4955 ft | 251 kts | 352° |
| 2026-04-25 12:09 | 52.51258 | 20.51967 | 5431 ft | 262 kts | 351° |
| 2026-04-25 12:10 | 52.53037 | 20.51804 | 6272 ft | 257 kts | 351° |
| 2026-04-25 12:10 | 52.54863 | 20.51628 | 6970 ft | 260 kts | 351° |
| 2026-04-25 12:10 | 52.56636 | 20.51745 | 7644 ft | 269 kts | 3° |
| 2026-04-25 12:10 | 52.58436 | 20.52801 | 8287 ft | 286 kts | 25° |
| 2026-04-25 12:11 | 52.59963 | 20.54997 | 9102 ft | 296 kts | 44° |
| 2026-04-25 12:11 | 52.61140 | 20.57831 | 9712 ft | 310 kts | 58° |
| 2026-04-25 12:11 | 52.61730 | 20.61293 | 10331 ft | 324 kts | 78° |
| 2026-04-25 12:11 | 52.62048 | 20.65055 | 10600 ft | 345 kts | 78° |
| 2026-04-25 12:12 | 52.62405 | 20.69018 | 11036 ft | 358 kts | 78° |
| 2026-04-25 12:12 | 52.62660 | 20.71772 | 11196 ft | 372 kts | 78° |
| 2026-04-25 12:12 | 52.63175 | 20.77445 | 12057 ft | 380 kts | 78° |
| 2026-04-25 12:12 | 52.63553 | 20.81741 | 12737 ft | 385 kts | 78° |
| 2026-04-25 12:13 | 52.63791 | 20.86128 | 13432 ft | 393 kts | 87° |
| 2026-04-25 12:13 | 52.63466 | 20.90613 | 14107 ft | 401 kts | 105° |
| 2026-04-25 12:13 | 52.62289 | 20.94796 | 14877 ft | 402 kts | 126° |
| 2026-04-25 12:13 | 52.60437 | 20.98207 | 15585 ft | 401 kts | 141° |
| 2026-04-25 12:14 | 52.58322 | 21.01195 | 16272 ft | 405 kts | 143° |
| 2026-04-25 12:14 | 52.56132 | 21.04128 | 16940 ft | 409 kts | 144° |
| 2026-04-25 12:14 | 52.53921 | 21.07042 | 17639 ft | 411 kts | 144° |
| 2026-04-25 12:14 | 52.51682 | 21.09987 | 18216 ft | 417 kts | 144° |
| 2026-04-25 12:15 | 52.49419 | 21.12972 | 18889 ft | 421 kts | 144° |
| 2026-04-25 12:15 | 52.47070 | 21.15762 | 19574 ft | 419 kts | 152° |
| 2026-04-25 12:15 | 52.44443 | 21.17915 | 20216 ft | 417 kts | 163° |
| 2026-04-25 12:15 | 52.41690 | 21.19223 | 20857 ft | 413 kts | 174° |
| 2026-04-25 12:16 | 52.38888 | 21.19689 | 21492 ft | 408 kts | 185° |
| 2026-04-25 12:16 | 52.36077 | 21.19313 | 22074 ft | 403 kts | 196° |
| 2026-04-25 12:16 | 52.33379 | 21.18189 | 22652 ft | 401 kts | 203° |
| 2026-04-25 12:16 | 52.30744 | 21.16768 | 23238 ft | 403 kts | 204° |
| 2026-04-25 12:17 | 52.28009 | 21.15533 | 23768 ft | 412 kts | 197° |
| 2026-04-25 12:17 | 52.25149 | 21.15030 | 24270 ft | 423 kts | 186° |
| 2026-04-25 12:17 | 52.22165 | 21.15363 | 24793 ft | 433 kts | 176° |
| 2026-04-25 12:17 | 52.19219 | 21.16514 | 25323 ft | 441 kts | 167° |
| 2026-04-25 12:18 | 52.16323 | 21.18160 | 25806 ft | 447 kts | 163° |
| 2026-04-25 12:18 | 52.13394 | 21.19973 | 26259 ft | 451 kts | 163° |
| 2026-04-25 12:18 | 52.10446 | 21.21759 | 26692 ft | 454 kts | 164° |
| 2026-04-25 12:18 | 52.07476 | 21.23449 | 27139 ft | 456 kts | 166° |
| 2026-04-25 12:19 | 52.02450 | 21.26069 | 27885 ft | 459 kts | 167° |
| 2026-04-25 12:19 | 51.98373 | 21.28045 | 28442 ft | 462 kts | 168° |
| 2026-04-25 12:19 | 51.95270 | 21.29492 | 28820 ft | 465 kts | 168° |
| 2026-04-25 12:20 | 51.92146 | 21.30916 | 29220 ft | 468 kts | 168° |
| 2026-04-25 12:20 | 51.89097 | 21.32290 | 29605 ft | 470 kts | 169° |
| 2026-04-25 12:20 | 51.85873 | 21.33733 | 29954 ft | 474 kts | 169° |
| 2026-04-25 12:20 | 51.82668 | 21.35164 | 30465 ft | 473 kts | 168° |
| 2026-04-25 12:21 | 51.79559 | 21.36552 | 31102 ft | 469 kts | 169° |
| 2026-04-25 12:21 | 51.76407 | 21.37959 | 31590 ft | 468 kts | 169° |
| 2026-04-25 12:21 | 51.73267 | 21.39356 | 32031 ft | 467 kts | 169° |
| 2026-04-25 12:21 | 51.70156 | 21.40762 | 32499 ft | 466 kts | 168° |
| 2026-04-25 12:22 | 51.67053 | 21.42385 | 32935 ft | 468 kts | 163° |
| 2026-04-25 12:22 | 51.64041 | 21.44424 | 33344 ft | 470 kts | 158° |
| 2026-04-25 12:22 | 51.61111 | 21.46846 | 33744 ft | 471 kts | 154° |
| 2026-04-25 12:22 | 51.58238 | 21.49479 | 34167 ft | 471 kts | 152° |
| 2026-04-25 12:23 | 51.55426 | 21.52183 | 34542 ft | 471 kts | 152° |
| 2026-04-25 12:23 | 51.52645 | 21.54908 | 34882 ft | 470 kts | 151° |
| 2026-04-25 12:23 | 51.49851 | 21.57654 | 35187 ft | 470 kts | 151° |
| 2026-04-25 12:23 | 51.47075 | 21.60369 | 35492 ft | 469 kts | 151° |
| 2026-04-25 12:24 | 51.44309 | 21.63052 | 35780 ft | 469 kts | 152° |
| 2026-04-25 12:24 | 51.41443 | 21.65640 | 36055 ft | 467 kts | 156° |
| 2026-04-25 12:24 | 51.38505 | 21.67783 | 36333 ft | 462 kts | 163° |
| 2026-04-25 12:24 | 51.35492 | 21.69394 | 36565 ft | 459 kts | 169° |
| 2026-04-25 12:25 | 51.32405 | 21.70479 | 36720 ft | 457 kts | 176° |
| 2026-04-25 12:25 | 51.29225 | 21.70913 | 36821 ft | 451 kts | 187° |
| 2026-04-25 12:25 | 51.26174 | 21.70323 | 36839 ft | 442 kts | 197° |
| 2026-04-25 12:26 | 51.20084 | 21.68808 | 36841 ft | 443 kts | 192° |
| 2026-04-25 12:26 | 51.13972 | 21.67912 | 36840 ft | 445 kts | 190° |
| 2026-04-25 12:27 | 51.07789 | 21.67080 | 36844 ft | 445 kts | 190° |
| 2026-04-25 12:27 | 51.01672 | 21.66199 | 36848 ft | 445 kts | 191° |
| 2026-04-25 12:28 | 50.95484 | 21.65266 | 36845 ft | 445 kts | 191° |
| 2026-04-25 12:28 | 50.89351 | 21.64321 | 36859 ft | 446 kts | 191° |
| 2026-04-25 12:29 | 50.83175 | 21.63364 | 36860 ft | 445 kts | 192° |
| 2026-04-25 12:29 | 50.77021 | 21.62409 | 36863 ft | 446 kts | 192° |
| 2026-04-25 12:30 | 50.70864 | 21.61454 | 36858 ft | 446 kts | 192° |
| 2026-04-25 12:30 | 50.64699 | 21.60501 | 36868 ft | 446 kts | 192° |
| 2026-04-25 12:31 | 50.58557 | 21.59554 | 36871 ft | 446 kts | 192° |
| 2026-04-25 12:31 | 50.52371 | 21.58606 | 36875 ft | 446 kts | 192° |
| 2026-04-25 12:32 | 50.46215 | 21.57661 | 36881 ft | 447 kts | 193° |
| 2026-04-25 12:32 | 50.40035 | 21.56720 | 36882 ft | 446 kts | 193° |
| 2026-04-25 12:33 | 50.33879 | 21.55783 | 36886 ft | 446 kts | 193° |
| 2026-04-25 12:33 | 50.27676 | 21.54837 | 36890 ft | 448 kts | 193° |
| 2026-04-25 12:34 | 50.21506 | 21.53897 | 36894 ft | 448 kts | 193° |
| 2026-04-25 12:34 | 50.15356 | 21.52969 | 36894 ft | 446 kts | 194° |
| 2026-04-25 12:35 | 50.09156 | 21.52037 | 36895 ft | 446 kts | 194° |
| 2026-04-25 12:35 | 50.03007 | 21.51113 | 36903 ft | 445 kts | 194° |
| 2026-04-25 12:36 | 49.96829 | 21.50178 | 36911 ft | 447 kts | 194° |
| 2026-04-25 12:36 | 49.90670 | 21.49253 | 36917 ft | 448 kts | 194° |
| 2026-04-25 12:37 | 49.84453 | 21.48327 | 36917 ft | 447 kts | 194° |
| 2026-04-25 12:37 | 49.78303 | 21.47415 | 36917 ft | 445 kts | 194° |
| 2026-04-25 12:38 | 49.72148 | 21.46497 | 36922 ft | 447 kts | 194° |
| 2026-04-25 12:38 | 49.65923 | 21.45573 | 36923 ft | 447 kts | 194° |
| 2026-04-25 12:39 | 49.59772 | 21.44662 | 36928 ft | 447 kts | 193° |
| 2026-04-25 12:39 | 49.53553 | 21.43746 | 36923 ft | 446 kts | 193° |
| 2026-04-25 12:40 | 49.47358 | 21.42835 | 36927 ft | 447 kts | 193° |
| 2026-04-25 12:40 | 49.41228 | 21.41938 | 36928 ft | 446 kts | 194° |
| 2026-04-25 12:41 | 49.35024 | 21.41031 | 36930 ft | 446 kts | 193° |
| 2026-04-25 12:41 | 49.28850 | 21.40129 | 36932 ft | 448 kts | 193° |
| 2026-04-25 12:42 | 49.22637 | 21.39225 | 36933 ft | 445 kts | 193° |
| 2026-04-25 12:42 | 49.16493 | 21.38331 | 36935 ft | 447 kts | 193° |
| 2026-04-25 12:43 | 49.10293 | 21.37429 | 36931 ft | 446 kts | 193° |
| 2026-04-25 12:43 | 49.01024 | 21.36092 | 36929 ft | 445 kts | 193° |
| 2026-04-25 12:44 | 48.94835 | 21.35205 | 36923 ft | 447 kts | 193° |
| 2026-04-25 12:45 | 48.85530 | 21.33870 | 37007 ft | 448 kts | 192° |
| 2026-04-25 12:45 | 48.82453 | 21.33429 | 37318 ft | 447 kts | 192° |
| 2026-04-25 12:45 | 48.76240 | 21.32538 | 37902 ft | 448 kts | 192° |
| 2026-04-25 12:46 | 48.70057 | 21.31652 | 37926 ft | 449 kts | 192° |
| 2026-04-25 12:46 | 48.63844 | 21.30777 | 37931 ft | 448 kts | 192° |
| 2026-04-25 12:47 | 48.57684 | 21.29905 | 37928 ft | 447 kts | 192° |
| 2026-04-25 12:47 | 48.51589 | 21.28505 | 37924 ft | 440 kts | 201° |
| 2026-04-25 12:48 | 48.45808 | 21.25704 | 37928 ft | 432 kts | 207° |
| 2026-04-25 12:48 | 48.40237 | 21.22427 | 37926 ft | 432 kts | 209° |
| 2026-04-25 12:49 | 48.34645 | 21.19090 | 37926 ft | 432 kts | 208° |
| 2026-04-25 12:49 | 48.29057 | 21.15812 | 37917 ft | 433 kts | 208° |
| 2026-04-25 12:50 | 48.23420 | 21.12548 | 37915 ft | 433 kts | 208° |
| 2026-04-25 12:50 | 48.17835 | 21.09347 | 37916 ft | 431 kts | 208° |
| 2026-04-25 12:51 | 48.12210 | 21.06135 | 37911 ft | 432 kts | 208° |
| 2026-04-25 12:51 | 48.06591 | 21.02937 | 37914 ft | 431 kts | 208° |
| 2026-04-25 12:52 | 48.00980 | 20.99751 | 37914 ft | 433 kts | 208° |
| 2026-04-25 12:52 | 47.95325 | 20.96738 | 37916 ft | 433 kts | 206° |
| 2026-04-25 12:53 | 47.89581 | 20.93876 | 37920 ft | 435 kts | 205° |
| 2026-04-25 12:53 | 47.83874 | 20.91045 | 37930 ft | 435 kts | 206° |
| 2026-04-25 12:54 | 47.78115 | 20.88173 | 37940 ft | 434 kts | 205° |
| 2026-04-25 12:54 | 47.72405 | 20.85318 | 37943 ft | 434 kts | 206° |
| 2026-04-25 12:55 | 47.67635 | 20.82933 | 37946 ft | 434 kts | 206° |
| 2026-04-25 12:55 | 47.60964 | 20.79596 | 37943 ft | 435 kts | 206° |
| 2026-04-25 12:56 | 47.58122 | 20.78177 | 38211 ft | 434 kts | 205° |
| 2026-04-25 12:56 | 47.55270 | 20.76755 | 38019 ft | 435 kts | 205° |
| 2026-04-25 12:56 | 47.49550 | 20.73912 | 37953 ft | 431 kts | 205° |
| 2026-04-25 12:57 | 47.43892 | 20.71103 | 37953 ft | 433 kts | 205° |
| 2026-04-25 12:57 | 47.38142 | 20.68254 | 37958 ft | 434 kts | 205° |
| 2026-04-25 12:58 | 47.32446 | 20.65437 | 38298 ft | 434 kts | 205° |
| 2026-04-25 12:58 | 47.29607 | 20.64037 | 38591 ft | 434 kts | 205° |
| 2026-04-25 12:58 | 47.26752 | 20.62632 | 38883 ft | 433 kts | 205° |
| 2026-04-25 12:59 | 47.21009 | 20.59804 | 38963 ft | 436 kts | 205° |
| 2026-04-25 12:59 | 47.15287 | 20.56996 | 38965 ft | 433 kts | 205° |
| 2026-04-25 13:00 | 47.11470 | 20.55127 | 38968 ft | 435 kts | 205° |
| 2026-04-25 13:00 | 47.03820 | 20.51387 | 38969 ft | 435 kts | 205° |
| 2026-04-25 13:01 | 46.98115 | 20.48606 | 38971 ft | 435 kts | 205° |
| 2026-04-25 13:01 | 46.92360 | 20.45807 | 38973 ft | 435 kts | 205° |
| 2026-04-25 13:02 | 46.86600 | 20.43013 | 38974 ft | 435 kts | 205° |
| 2026-04-25 13:02 | 46.80891 | 20.40247 | 38971 ft | 436 kts | 205° |
| 2026-04-25 13:03 | 46.75137 | 20.37466 | 38972 ft | 436 kts | 205° |
| 2026-04-25 13:03 | 46.69339 | 20.34669 | 38972 ft | 437 kts | 204° |
| 2026-04-25 13:04 | 46.63571 | 20.31894 | 38971 ft | 437 kts | 204° |
| 2026-04-25 13:04 | 46.57802 | 20.29126 | 38979 ft | 437 kts | 204° |
| 2026-04-25 13:05 | 46.52027 | 20.26361 | 38976 ft | 437 kts | 204° |
| 2026-04-25 13:05 | 46.46268 | 20.23609 | 38979 ft | 437 kts | 204° |
| 2026-04-25 13:06 | 46.40467 | 20.20844 | 38980 ft | 437 kts | 204° |
| 2026-04-25 13:06 | 46.34717 | 20.18108 | 38985 ft | 438 kts | 204° |
| 2026-04-25 13:07 | 46.28920 | 20.15356 | 38984 ft | 439 kts | 204° |
| 2026-04-25 13:07 | 46.23099 | 20.12600 | 38985 ft | 438 kts | 204° |
| 2026-04-25 13:08 | 46.17303 | 20.10001 | 38983 ft | 440 kts | 200° |
| 2026-04-25 13:08 | 46.11206 | 20.08495 | 38989 ft | 446 kts | 191° |
| 2026-04-25 13:09 | 46.04983 | 20.07745 | 38991 ft | 448 kts | 189° |
| 2026-04-25 13:09 | 45.98807 | 20.07117 | 38995 ft | 448 kts | 189° |
| 2026-04-25 13:10 | 45.92583 | 20.06439 | 38996 ft | 449 kts | 189° |
| 2026-04-25 13:10 | 45.86350 | 20.05717 | 38997 ft | 449 kts | 189° |
| 2026-04-25 13:11 | 45.80164 | 20.04979 | 38997 ft | 449 kts | 189° |
| 2026-04-25 13:11 | 45.73900 | 20.04222 | 39000 ft | 449 kts | 189° |
| 2026-04-25 13:12 | 45.67701 | 20.03472 | 39000 ft | 448 kts | 189° |
| 2026-04-25 13:12 | 45.62532 | 20.02847 | 39000 ft | 448 kts | 189° |
| 2026-04-25 13:13 | 45.55235 | 20.01964 | 39003 ft | 450 kts | 189° |
| 2026-04-25 13:13 | 45.49023 | 20.01217 | 39003 ft | 449 kts | 189° |
| 2026-04-25 13:14 | 45.42783 | 20.00467 | 39003 ft | 450 kts | 189° |
| 2026-04-25 13:14 | 45.36566 | 19.99722 | 39009 ft | 449 kts | 188° |
| 2026-04-25 13:15 | 45.30323 | 19.98976 | 39009 ft | 449 kts | 188° |
| 2026-04-25 13:15 | 45.24088 | 19.98232 | 39013 ft | 449 kts | 188° |
| 2026-04-25 13:16 | 45.17905 | 19.97495 | 39015 ft | 450 kts | 188° |
| 2026-04-25 13:16 | 45.11649 | 19.96751 | 39017 ft | 450 kts | 188° |
| 2026-04-25 13:17 | 45.05426 | 19.96013 | 39018 ft | 450 kts | 188° |
| 2026-04-25 13:17 | 44.99198 | 19.95276 | 39022 ft | 450 kts | 188° |
| 2026-04-25 13:18 | 44.92942 | 19.94539 | 39022 ft | 449 kts | 188° |
| 2026-04-25 13:18 | 44.86679 | 19.93802 | 39023 ft | 449 kts | 188° |
| 2026-04-25 13:19 | 44.80470 | 19.93072 | 39021 ft | 450 kts | 188° |
| 2026-04-25 13:19 | 44.76304 | 19.92582 | 39020 ft | 450 kts | 188° |
| 2026-04-25 13:20 | 44.68029 | 19.91613 | 39018 ft | 450 kts | 187° |
| 2026-04-25 13:20 | 44.61744 | 19.90879 | 39018 ft | 450 kts | 187° |
| 2026-04-25 13:21 | 44.55545 | 19.90157 | 39019 ft | 450 kts | 187° |
| 2026-04-25 13:21 | 44.49295 | 19.89431 | 39021 ft | 450 kts | 187° |
| 2026-04-25 13:22 | 44.43074 | 19.88709 | 39026 ft | 451 kts | 187° |
| 2026-04-25 13:23 | 44.33694 | 19.87623 | 39031 ft | 450 kts | 187° |
| 2026-04-25 13:23 | 44.27416 | 19.86803 | 39036 ft | 451 kts | 188° |
| 2026-04-25 13:24 | 44.21196 | 19.85820 | 39041 ft | 451 kts | 189° |
| 2026-04-25 13:24 | 44.14974 | 19.84815 | 39046 ft | 451 kts | 188° |
| 2026-04-25 13:25 | 44.08725 | 19.83821 | 39051 ft | 451 kts | 188° |
| 2026-04-25 13:25 | 44.02504 | 19.82848 | 39055 ft | 451 kts | 188° |
| 2026-04-25 13:26 | 43.96279 | 19.81882 | 39057 ft | 451 kts | 188° |
| 2026-04-25 13:26 | 43.90031 | 19.80918 | 39059 ft | 451 kts | 188° |
| 2026-04-25 13:27 | 43.83802 | 19.79961 | 39063 ft | 451 kts | 188° |
| 2026-04-25 13:27 | 43.77537 | 19.79001 | 39066 ft | 451 kts | 188° |
| 2026-04-25 13:28 | 43.71308 | 19.78048 | 39067 ft | 452 kts | 188° |
| 2026-04-25 13:28 | 43.65038 | 19.77092 | 39077 ft | 452 kts | 187° |
| 2026-04-25 13:29 | 43.58798 | 19.76143 | 39086 ft | 452 kts | 187° |
| 2026-04-25 13:29 | 43.52514 | 19.75189 | 39091 ft | 453 kts | 187° |
| 2026-04-25 13:30 | 43.43156 | 19.73771 | 39088 ft | 451 kts | 187° |
| 2026-04-25 13:31 | 43.33747 | 19.72349 | 39092 ft | 452 kts | 187° |
| 2026-04-25 13:31 | 43.27462 | 19.71402 | 39086 ft | 452 kts | 187° |
| 2026-04-25 13:32 | 43.21238 | 19.70466 | 39090 ft | 452 kts | 187° |
| 2026-04-25 13:32 | 43.14989 | 19.69529 | 39090 ft | 452 kts | 187° |
| 2026-04-25 13:33 | 43.08741 | 19.68594 | 38950 ft | 450 kts | 187° |
| 2026-04-25 13:33 | 43.05635 | 19.68130 | 38296 ft | 450 kts | 187° |
| 2026-04-25 13:33 | 43.02510 | 19.67664 | 37740 ft | 447 kts | 187° |
| 2026-04-25 13:33 | 43.00448 | 19.67356 | 37510 ft | 442 kts | 187° |
| 2026-04-25 13:34 | 42.96369 | 19.66748 | 36907 ft | 441 kts | 187° |
| 2026-04-25 13:34 | 42.93305 | 19.66292 | 36370 ft | 443 kts | 187° |
| 2026-04-25 13:34 | 42.90270 | 19.65841 | 35940 ft | 444 kts | 186° |
| 2026-04-25 13:34 | 42.87181 | 19.65382 | 35409 ft | 443 kts | 186° |
| 2026-04-25 13:35 | 42.84136 | 19.64930 | 34888 ft | 439 kts | 186° |
| 2026-04-25 13:35 | 42.81104 | 19.64480 | 34370 ft | 436 kts | 186° |
| 2026-04-25 13:35 | 42.78107 | 19.64036 | 33883 ft | 433 kts | 186° |
| 2026-04-25 13:35 | 42.75110 | 19.63592 | 33366 ft | 431 kts | 186° |
| 2026-04-25 13:36 | 42.72165 | 19.63156 | 32858 ft | 428 kts | 186° |
| 2026-04-25 13:36 | 42.69198 | 19.62718 | 32340 ft | 426 kts | 186° |
| 2026-04-25 13:36 | 42.66254 | 19.62283 | 31824 ft | 424 kts | 186° |
| 2026-04-25 13:36 | 42.63350 | 19.61855 | 31310 ft | 421 kts | 186° |
| 2026-04-25 13:37 | 42.60460 | 19.61429 | 30806 ft | 419 kts | 186° |
| 2026-04-25 13:37 | 42.57557 | 19.61001 | 30295 ft | 416 kts | 186° |
| 2026-04-25 13:37 | 42.54707 | 19.60582 | 29785 ft | 414 kts | 186° |
| 2026-04-25 13:37 | 42.51864 | 19.60098 | 29287 ft | 411 kts | 189° |
| 2026-04-25 13:38 | 42.49047 | 19.59428 | 28796 ft | 407 kts | 191° |
| 2026-04-25 13:38 | 42.46288 | 19.58664 | 28305 ft | 403 kts | 192° |
| 2026-04-25 13:38 | 42.43560 | 19.57871 | 27811 ft | 399 kts | 192° |
| 2026-04-25 13:38 | 42.40876 | 19.57088 | 27325 ft | 396 kts | 192° |
| 2026-04-25 13:39 | 42.38180 | 19.56309 | 26829 ft | 393 kts | 192° |
| 2026-04-25 13:39 | 42.35510 | 19.55549 | 26347 ft | 389 kts | 192° |
| 2026-04-25 13:39 | 42.32892 | 19.54814 | 25868 ft | 386 kts | 192° |
| 2026-04-25 13:39 | 42.30257 | 19.54082 | 25385 ft | 383 kts | 192° |
| 2026-04-25 13:40 | 42.27680 | 19.53372 | 24908 ft | 380 kts | 192° |
| 2026-04-25 13:40 | 42.25082 | 19.52661 | 24419 ft | 377 kts | 192° |
| 2026-04-25 13:40 | 42.22552 | 19.51970 | 23952 ft | 373 kts | 192° |
| 2026-04-25 13:40 | 42.19994 | 19.51274 | 23483 ft | 370 kts | 192° |
| 2026-04-25 13:41 | 42.17498 | 19.50596 | 23020 ft | 367 kts | 192° |
| 2026-04-25 13:41 | 42.15003 | 19.49919 | 22627 ft | 361 kts | 192° |
| 2026-04-25 13:41 | 42.12579 | 19.49261 | 22243 ft | 357 kts | 192° |
| 2026-04-25 13:41 | 42.10141 | 19.48601 | 21800 ft | 354 kts | 192° |
| 2026-04-25 13:42 | 42.07739 | 19.47951 | 21363 ft | 351 kts | 192° |
| 2026-04-25 13:42 | 42.05338 | 19.47301 | 20910 ft | 348 kts | 192° |
| 2026-04-25 13:42 | 42.02980 | 19.46664 | 20492 ft | 347 kts | 192° |
| 2026-04-25 13:42 | 42.00624 | 19.46042 | 20073 ft | 345 kts | 191° |
| 2026-04-25 13:43 | 41.98241 | 19.45626 | 19621 ft | 344 kts | 184° |
| 2026-04-25 13:43 | 41.95875 | 19.45714 | 19191 ft | 341 kts | 174° |
| 2026-04-25 13:43 | 41.93519 | 19.46161 | 18778 ft | 339 kts | 170° |
| 2026-04-25 13:43 | 41.91217 | 19.46742 | 18365 ft | 338 kts | 169° |
| 2026-04-25 13:44 | 41.88929 | 19.47357 | 17932 ft | 336 kts | 169° |
| 2026-04-25 13:44 | 41.86632 | 19.47959 | 17532 ft | 335 kts | 169° |
| 2026-04-25 13:44 | 41.84331 | 19.48538 | 17094 ft | 334 kts | 169° |
| 2026-04-25 13:44 | 41.82058 | 19.49092 | 16686 ft | 333 kts | 170° |
| 2026-04-25 13:45 | 41.79778 | 19.49636 | 16263 ft | 332 kts | 170° |
| 2026-04-25 13:45 | 41.77524 | 19.50170 | 15834 ft | 330 kts | 170° |
| 2026-04-25 13:45 | 41.75269 | 19.50703 | 15421 ft | 329 kts | 170° |
| 2026-04-25 13:45 | 41.73008 | 19.51237 | 15008 ft | 327 kts | 170° |
| 2026-04-25 13:46 | 41.70775 | 19.51765 | 14597 ft | 326 kts | 170° |
| 2026-04-25 13:46 | 41.68544 | 19.52293 | 14181 ft | 324 kts | 170° |
| 2026-04-25 13:46 | 41.66338 | 19.52814 | 13791 ft | 323 kts | 169° |
| 2026-04-25 13:46 | 41.64108 | 19.53341 | 13372 ft | 322 kts | 170° |
| 2026-04-25 13:47 | 41.61903 | 19.53787 | 12855 ft | 323 kts | 173° |
| 2026-04-25 13:47 | 41.59663 | 19.54104 | 12444 ft | 320 kts | 174° |
| 2026-04-25 13:47 | 41.57475 | 19.54365 | 12042 ft | 316 kts | 175° |
| 2026-04-25 13:47 | 41.55307 | 19.54623 | 11661 ft | 312 kts | 174° |
| 2026-04-25 13:48 | 41.53141 | 19.54894 | 11270 ft | 309 kts | 174° |
| 2026-04-25 13:48 | 41.51019 | 19.55172 | 10874 ft | 306 kts | 174° |
| 2026-04-25 13:48 | 41.48886 | 19.55459 | 10454 ft | 303 kts | 174° |
| 2026-04-25 13:48 | 41.46817 | 19.55740 | 10084 ft | 300 kts | 174° |
| 2026-04-25 13:49 | 41.44737 | 19.56024 | 9708 ft | 297 kts | 174° |
| 2026-04-25 13:49 | 41.42713 | 19.56299 | 9336 ft | 294 kts | 174° |
| 2026-04-25 13:49 | 41.40681 | 19.56575 | 8954 ft | 291 kts | 174° |
| 2026-04-25 13:49 | 41.38656 | 19.56850 | 8595 ft | 289 kts | 174° |
| 2026-04-25 13:50 | 41.36677 | 19.57118 | 8234 ft | 286 kts | 174° |
| 2026-04-25 13:50 | 41.34702 | 19.57386 | 7872 ft | 283 kts | 173° |
| 2026-04-25 13:50 | 41.32739 | 19.57651 | 7514 ft | 280 kts | 173° |
| 2026-04-25 13:50 | 41.30809 | 19.57913 | 7156 ft | 278 kts | 173° |
| 2026-04-25 13:51 | 41.28901 | 19.58171 | 6810 ft | 276 kts | 173° |
| 2026-04-25 13:51 | 41.27007 | 19.58427 | 6462 ft | 274 kts | 173° |
| 2026-04-25 13:51 | 41.25086 | 19.58686 | 6104 ft | 274 kts | 173° |
| 2026-04-25 13:51 | 41.23193 | 19.58942 | 5752 ft | 273 kts | 173° |
| 2026-04-25 13:52 | 41.21315 | 19.59260 | 5393 ft | 273 kts | 167° |
| 2026-04-25 13:52 | 41.19569 | 19.60122 | 5041 ft | 269 kts | 145° |
| 2026-04-25 13:52 | 41.18327 | 19.61921 | 4715 ft | 262 kts | 116° |
| 2026-04-25 13:52 | 41.17767 | 19.64187 | 4404 ft | 255 kts | 98° |
| 2026-04-25 13:53 | 41.17666 | 19.66494 | 4277 ft | 242 kts | 86° |
| 2026-04-25 13:53 | 41.17820 | 19.68624 | 4219 ft | 227 kts | 82° |
| 2026-04-25 13:53 | 41.18030 | 19.70670 | 4147 ft | 215 kts | 78° |
| 2026-04-25 13:53 | 41.18471 | 19.72499 | 4071 ft | 203 kts | 59° |
| 2026-04-25 13:54 | 41.19367 | 19.73814 | 3990 ft | 191 kts | 32° |
| 2026-04-25 13:54 | 41.20578 | 19.74557 | 3811 ft | 189 kts | 15° |
| 2026-04-25 13:54 | 41.21859 | 19.74742 | 3573 ft | 186 kts | 355° |
| 2026-04-25 13:54 | 41.23143 | 19.74528 | 3371 ft | 184 kts | 352° |
| 2026-04-25 13:55 | 41.24414 | 19.74322 | 3173 ft | 184 kts | 354° |
| 2026-04-25 13:55 | 41.25672 | 19.74152 | 2974 ft | 181 kts | 354° |
| 2026-04-25 13:55 | 41.26916 | 19.73989 | 2781 ft | 176 kts | 354° |
| 2026-04-25 13:55 | 41.28128 | 19.73829 | 2597 ft | 171 kts | 354° |
| 2026-04-25 13:56 | 41.29288 | 19.73673 | 2422 ft | 165 kts | 353° |
| 2026-04-25 13:56 | 41.30421 | 19.73523 | 2246 ft | 162 kts | 354° |
| 2026-04-25 13:56 | 41.31543 | 19.73375 | 2095 ft | 162 kts | 354° |
| 2026-04-25 13:56 | 41.32653 | 19.73230 | 1889 ft | 159 kts | 353° |
| 2026-04-25 13:57 | 41.33778 | 19.73079 | 1617 ft | 160 kts | 353° |
| 2026-04-25 13:57 | 41.34502 | 19.72983 | 1447 ft | 155 kts | 354° |
| 2026-04-25 13:57 | 41.35862 | 19.72805 | 1144 ft | 142 kts | 352° |
| 2026-04-25 13:57 | 41.36853 | 19.72668 | 934 ft | 142 kts | 352° |
| 2026-04-25 13:58 | 41.37821 | 19.72503 | 721 ft | 142 kts | 353° |
| 2026-04-25 13:58 | 41.38817 | 19.72359 | 516 ft | 143 kts | 353° |
| 2026-04-25 13:58 | 41.39813 | 19.72263 | 271 ft | 143 kts | 357° |
| 2026-04-25 13:58 | 41.40797 | 19.72125 | 134 ft | 133 kts | 353° |
| 2026-04-25 13:59 | 41.41492 | 19.72052 | 128 ft | 66 kts | 354° |
| 2026-04-25 13:59 | 41.41793 | 19.72016 | 124 ft | 21 kts | 356° |
| 2026-04-25 13:59 | 41.41878 | 19.71988 | 123 ft | 8 kts | 303° |
| 2026-04-25 13:59 | 41.41878 | 19.71904 | 122 ft | 8 kts | 268° |
| 2026-04-25 14:00 | 41.41876 | 19.71850 | 122 ft | 9 kts | 266° |
| 2026-04-25 14:00 | 41.41863 | 19.71714 | 122 ft | 10 kts | 265° |
| 2026-04-25 14:00 | 41.41862 | 19.71629 | 122 ft | 7 kts | 283° |
| 2026-04-25 14:00 | 41.41874 | 19.71574 | 122 ft | 4 kts | 281° |
| 2026-04-25 14:01 | 41.41874 | 19.71542 | 122 ft | 2 kts | 261° |
| 2026-04-25 14:01 | 41.41873 | 19.71533 | 122 ft | 0 kts | 262° |
| 2026-04-25 14:01 | 41.41872 | 19.71532 | 122 ft | 0 kts | 262° |
| 2026-04-25 14:01 | 41.41872 | 19.71531 | 122 ft | 0 kts | 262° |